Aérodrome :
LOGIN :

S'inscrire | Disclaimer

   EN    FR    IT 

 










Légende :    VFR   VFR Marginal   IFR   IFR Intensif   IFR Très Intensif
Visi : 
Plafond : 
>= 8 km
>= 3000ft
5 à 8 km
1000 à 3000 ft
1500m à 5 km
500 à 1000 ft
800 à 1500m
200 à 500 ft
< 800m
< 200 ft
Symboles :   Orages  Brouillard  Fortes neiges  Fortes précipitations  Vent > 20 kt
SIGMETs :   Divers  Orages  Givrage  Turbulence  Onde Orograph.  Cendres Volcan.






- Altitude de l'aérodrome : 370 ft


EBBE - Beauvechain AB

DERNIER METAR :
  • 141455Z AUTO 24007KT 9999 FEW042/// BKN230/// 15/06 Q1021 BLU

METARs EXPIRÉS :
  • 141425Z AUTO 25003KT 9999 SCT042/// 16/06 Q1021 BLU
  • 141355Z AUTO 24006KT 9999 FEW043/// 15/06 Q1021 BLU
  • 141325Z AUTO 27005KT 9999 FEW039/// 16/06 Q1022 BLU
  • 141255Z AUTO 29005KT 9999 SCT037/// BKN046/// 16/08 Q1022 BLU
  • 141225Z AUTO 25004KT 9999 FEW033/// SCT043/// 15/07 Q1023 BLU
  • 141155Z AUTO 29006KT 9999 SCT031/// BKN038/// 14/07 Q1023 BLU
  • 141125Z AUTO 33006KT 9999 FEW029/// BKN110/// 15/08 Q1023 BLU
  • 141055Z AUTO 28005KT 9999 FEW027/// SCT042/// BKN130/// 14/08 Q1024 BLU
  • 141025Z AUTO 26005KT 9999 FEW021/// BKN029/// 13/08 Q1024 BLU

Prévision TAF périmée.



MET'MAP, la Météo Aéronautique d'un coup d'oeil ! - Copyright ORBIFLY Décembre 2007 - Disclaimer

ORBIFLY MET'MAP TEAM :

Programmation & Développement : Alexandra Zaïnal
Sur une idée originale de : Baudouin d'Aumeries
Soutien technique & logistique : Manuel Goepfert
Assistance : Marc-Olivier Méhu




SOURCES & CREDITS :

   NOAA